createdAt,value
2022-08-25T00:00:59.081Z,20.65
2022-08-25T00:01:59.052Z,20.66
2022-08-25T00:02:59.097Z,20.66
2022-08-25T00:03:59.035Z,20.59
2022-08-25T00:04:59.039Z,20.68
2022-08-25T00:05:59.066Z,20.62
2022-08-25T00:07:02.904Z,20.66
2022-08-25T00:08:00.081Z,20.65
2022-08-25T00:08:58.987Z,20.62
2022-08-25T00:09:58.979Z,20.61
2022-08-25T00:11:03.469Z,20.58
2022-08-25T00:11:58.970Z,20.47
2022-08-25T00:12:58.949Z,20.28
2022-08-25T00:13:58.938Z,20.33
2022-08-25T00:14:58.929Z,20.23
2022-08-25T00:15:58.966Z,20.15
2022-08-25T00:16:58.934Z,20.27
2022-08-25T00:17:58.977Z,20.21
2022-08-25T00:18:58.881Z,20.20
2022-08-25T00:19:58.866Z,20.21
2022-08-25T00:20:58.867Z,20.23
2022-08-25T00:21:58.887Z,20.27
2022-08-25T00:22:58.848Z,20.21
2022-08-25T00:23:58.841Z,20.20
2022-08-25T00:24:58.830Z,20.13
2022-08-25T00:25:58.822Z,20.23
2022-08-25T00:26:58.824Z,20.27
2022-08-25T00:27:58.793Z,20.23
2022-08-25T00:29:01.886Z,20.24
2022-08-25T00:29:58.787Z,20.10
2022-08-25T00:30:58.829Z,20.16
2022-08-25T00:31:58.784Z,20.10
2022-08-25T00:32:58.763Z,20.03
2022-08-25T00:33:58.744Z,20.06
2022-08-25T00:34:58.734Z,20.06
2022-08-25T00:35:58.723Z,20.12
2022-08-25T00:36:58.734Z,20.05
2022-08-25T00:37:58.705Z,19.95
2022-08-25T00:38:58.698Z,20.08
2022-08-25T00:39:58.739Z,20.06
2022-08-25T00:40:58.674Z,20.00
2022-08-25T00:41:58.682Z,19.95
2022-08-25T00:42:58.655Z,19.97
2022-08-25T00:43:58.644Z,20.03
2022-08-25T00:44:58.639Z,19.98
2022-08-25T00:45:58.651Z,19.98
2022-08-25T00:46:58.635Z,19.94
2022-08-25T00:48:00.035Z,19.91
2022-08-25T00:48:58.591Z,19.93
2022-08-25T00:49:58.586Z,19.79
2022-08-25T00:50:58.572Z,19.95
2022-08-25T00:51:58.605Z,19.91
2022-08-25T00:52:58.555Z,19.95
2022-08-25T00:53:58.538Z,19.86
2022-08-25T00:55:01.912Z,19.93
2022-08-25T00:55:58.530Z,19.90
2022-08-25T00:56:58.540Z,19.88
2022-08-25T00:57:58.525Z,19.80
2022-08-25T00:58:58.494Z,19.86
2022-08-25T00:59:58.517Z,19.76
2022-08-25T01:00:58.484Z,19.83
2022-08-25T01:01:58.533Z,19.84
2022-08-25T01:02:58.476Z,19.83
2022-08-25T01:03:58.438Z,19.78
2022-08-25T01:04:58.433Z,19.66
2022-08-25T01:05:58.438Z,19.68
2022-08-25T01:06:58.481Z,19.66
2022-08-25T01:07:58.727Z,19.69
2022-08-25T01:08:58.398Z,19.63
2022-08-25T01:09:58.390Z,19.57
2022-08-25T01:10:58.382Z,19.51
2022-08-25T01:11:58.407Z,19.46
2022-08-25T01:12:58.348Z,19.36
2022-08-25T01:13:58.351Z,19.35
2022-08-25T01:14:58.337Z,19.36
2022-08-25T01:15:58.352Z,19.32
2022-08-25T01:16:58.327Z,19.17
2022-08-25T01:17:58.303Z,19.13
2022-08-25T01:18:58.300Z,19.10
2022-08-25T01:19:58.286Z,19.13
2022-08-25T01:20:58.271Z,19.02
2022-08-25T01:21:58.283Z,18.87
2022-08-25T01:22:58.259Z,18.95
2022-08-25T01:23:58.269Z,18.97
2022-08-25T01:24:58.238Z,18.99
2022-08-25T01:25:58.222Z,19.01
2022-08-25T01:26:58.229Z,18.97
2022-08-25T01:27:58.195Z,19.05
2022-08-25T01:28:58.197Z,19.11
2022-08-25T01:29:58.209Z,19.15
2022-08-25T01:30:58.286Z,19.10
2022-08-25T01:31:58.190Z,19.18
2022-08-25T01:32:58.162Z,19.21
2022-08-25T01:33:58.163Z,19.24
2022-08-25T01:34:58.148Z,19.20
2022-08-25T01:35:58.130Z,19.15
2022-08-25T01:36:58.144Z,19.10
2022-08-25T01:37:58.118Z,18.92
2022-08-25T01:38:58.104Z,18.83
2022-08-25T01:39:58.116Z,18.83
2022-08-25T01:40:58.079Z,18.87
2022-08-25T01:41:58.095Z,18.86
2022-08-25T01:42:58.065Z,18.80
2022-08-25T01:43:58.056Z,18.84
2022-08-25T01:44:58.044Z,18.87
2022-08-25T01:45:58.102Z,18.80
2022-08-25T01:46:58.045Z,18.64
2022-08-25T01:47:58.015Z,18.84
2022-08-25T01:48:58.017Z,18.64
2022-08-25T01:49:57.985Z,18.67
2022-08-25T01:50:57.984Z,18.67
2022-08-25T01:51:57.997Z,18.55
2022-08-25T01:52:57.963Z,18.62
2022-08-25T01:53:57.956Z,18.64
2022-08-25T01:54:57.959Z,18.57
2022-08-25T01:55:57.922Z,18.54
2022-08-25T01:56:57.939Z,18.54
2022-08-25T01:57:57.917Z,18.47
2022-08-25T01:58:57.910Z,18.52
2022-08-25T01:59:57.902Z,18.49
2022-08-25T02:00:57.927Z,18.49
2022-08-25T02:02:00.043Z,18.57
2022-08-25T02:04:58.758Z,18.49
2022-08-25T02:05:43.985Z,18.42
2022-08-25T02:06:43.991Z,18.42
2022-08-25T02:07:43.964Z,18.40
2022-08-25T02:08:43.958Z,18.49
2022-08-25T02:09:45.063Z,18.46
2022-08-25T02:10:45.054Z,18.36
2022-08-25T02:11:45.068Z,18.24
2022-08-25T02:12:45.032Z,18.27
2022-08-25T02:13:45.015Z,18.34
2022-08-25T02:14:45.012Z,18.25
2022-08-25T02:15:45.010Z,18.31
2022-08-25T02:16:45.034Z,18.25
2022-08-25T02:17:44.984Z,18.42
2022-08-25T02:18:44.973Z,18.43
2022-08-25T02:19:44.962Z,18.43
2022-08-25T02:20:44.954Z,18.54
2022-08-25T02:21:44.964Z,18.49
2022-08-25T02:22:51.185Z,18.49
2022-08-25T02:23:45.930Z,18.46
2022-08-25T02:24:44.920Z,18.52
2022-08-25T02:25:44.905Z,18.54
2022-08-25T02:26:44.910Z,18.39
2022-08-25T02:27:44.882Z,18.46
2022-08-25T02:28:44.861Z,18.54
2022-08-25T02:29:44.851Z,18.57
2022-08-25T02:30:44.899Z,18.58
2022-08-25T02:31:44.861Z,18.65
2022-08-25T02:32:44.833Z,18.61
2022-08-25T02:33:44.820Z,18.62
2022-08-25T02:34:44.815Z,18.62
2022-08-25T02:35:44.801Z,18.54
2022-08-25T02:36:44.806Z,18.62
2022-08-25T02:37:44.786Z,18.55
2022-08-25T02:38:44.767Z,18.55
2022-08-25T02:39:45.789Z,18.54
2022-08-25T02:40:44.751Z,18.52
2022-08-25T02:41:44.748Z,18.57
2022-08-25T02:42:44.743Z,18.57
2022-08-25T02:43:44.720Z,18.50
2022-08-25T02:44:44.711Z,18.49
2022-08-25T02:45:44.773Z,18.47
2022-08-25T02:46:44.704Z,18.44
2022-08-25T02:47:44.683Z,18.47
2022-08-25T02:48:44.670Z,18.43
2022-08-25T02:49:44.649Z,18.59
2022-08-25T02:50:44.650Z,18.52
2022-08-25T02:51:44.658Z,18.44
2022-08-25T02:52:44.639Z,18.50
2022-08-25T02:53:44.612Z,18.47
2022-08-25T02:54:44.601Z,18.52
2022-08-25T02:55:44.599Z,18.43
2022-08-25T02:56:44.599Z,18.44
2022-08-25T02:57:44.568Z,18.43
2022-08-25T02:58:44.569Z,18.49
2022-08-25T02:59:44.564Z,18.52
2022-08-25T03:00:44.605Z,18.50
2022-08-25T03:01:44.549Z,18.52
2022-08-25T03:02:44.528Z,18.58
2022-08-25T03:03:44.686Z,18.55
2022-08-25T03:04:44.564Z,18.62
2022-08-25T03:05:44.492Z,18.61
2022-08-25T03:07:16.394Z,18.68
2022-08-25T03:07:44.471Z,18.61
2022-08-25T03:08:44.472Z,18.59
2022-08-25T03:09:44.463Z,18.73
2022-08-25T03:10:44.457Z,18.77
2022-08-25T03:11:44.463Z,18.65
2022-08-25T03:12:44.437Z,18.68
2022-08-25T03:13:44.420Z,18.59
2022-08-25T03:14:44.429Z,18.58
2022-08-25T03:15:44.411Z,18.64
2022-08-25T03:16:46.238Z,18.40
2022-08-25T03:17:45.850Z,18.36
2022-08-25T03:18:44.376Z,18.25
2022-08-25T03:19:44.369Z,18.12
2022-08-25T03:20:44.401Z,17.92
2022-08-25T03:21:44.357Z,17.88
2022-08-25T03:22:44.339Z,17.88
2022-08-25T03:23:44.339Z,17.89
2022-08-25T03:24:44.327Z,17.73
2022-08-25T03:25:44.306Z,17.74
2022-08-25T03:26:44.320Z,17.70
2022-08-25T03:27:44.298Z,17.59
2022-08-25T03:28:44.292Z,17.51
2022-08-25T03:29:44.269Z,17.48
2022-08-25T03:30:44.268Z,17.50
2022-08-25T03:31:44.314Z,17.53
2022-08-25T03:32:44.250Z,17.53
2022-08-25T03:33:44.232Z,17.51
2022-08-25T03:34:44.226Z,17.62
2022-08-25T03:35:44.208Z,17.76
2022-08-25T03:36:44.230Z,17.66
2022-08-25T03:37:44.194Z,17.76
2022-08-25T03:38:44.185Z,17.74
2022-08-25T03:39:44.336Z,17.81
2022-08-25T03:40:44.171Z,17.85
2022-08-25T03:41:44.168Z,17.82
2022-08-25T03:42:45.173Z,17.89
2022-08-25T03:43:45.148Z,17.91
2022-08-25T03:44:44.135Z,17.84
2022-08-25T03:45:44.161Z,17.99
2022-08-25T03:46:44.122Z,17.92
2022-08-25T03:47:44.098Z,17.94
2022-08-25T03:48:44.094Z,18.02
2022-08-25T03:49:44.081Z,17.84
2022-08-25T03:50:44.118Z,17.92
2022-08-25T03:51:45.080Z,17.89
2022-08-25T03:52:44.058Z,18.00
2022-08-25T03:53:44.030Z,17.91
2022-08-25T03:54:44.026Z,17.89
2022-08-25T03:55:44.013Z,17.88
2022-08-25T03:56:44.034Z,17.81
2022-08-25T03:57:43.993Z,17.73
2022-08-25T03:58:43.986Z,17.76
2022-08-25T03:59:44.979Z,17.54
2022-08-25T04:00:43.988Z,17.48
2022-08-25T04:01:43.963Z,17.48
2022-08-25T04:02:44.017Z,17.48
2022-08-25T04:03:43.943Z,17.40
2022-08-25T04:04:43.924Z,17.35
2022-08-25T04:05:43.905Z,17.25
2022-08-25T04:06:43.922Z,17.28
2022-08-25T04:07:44.899Z,17.26
2022-08-25T04:08:43.903Z,17.35
2022-08-25T04:09:43.883Z,17.36
2022-08-25T04:10:43.879Z,17.35
2022-08-25T04:11:43.877Z,17.30
2022-08-25T04:12:43.854Z,17.20
2022-08-25T04:13:43.832Z,17.26
2022-08-25T04:14:43.834Z,17.38
2022-08-25T04:15:43.816Z,17.35
2022-08-25T04:16:43.930Z,17.38
2022-08-25T04:17:43.796Z,17.44
2022-08-25T04:18:43.788Z,17.50
2022-08-25T04:19:43.778Z,17.46
2022-08-25T04:20:46.695Z,17.47
2022-08-25T04:21:44.775Z,17.46
2022-08-25T04:22:45.194Z,17.55
2022-08-25T04:23:43.734Z,17.53
2022-08-25T04:24:43.750Z,17.51
2022-08-25T04:25:43.718Z,17.44
2022-08-25T04:26:43.722Z,17.38
2022-08-25T04:27:43.694Z,17.44
2022-08-25T04:28:43.688Z,17.40
2022-08-25T04:29:43.671Z,17.53
2022-08-25T04:30:43.689Z,17.50
2022-08-25T04:31:43.783Z,17.55
2022-08-25T04:32:43.647Z,17.50
2022-08-25T04:33:43.643Z,17.67
2022-08-25T04:34:43.630Z,17.69
2022-08-25T04:35:43.617Z,17.63
2022-08-25T04:36:43.620Z,17.69
2022-08-25T04:37:43.592Z,17.73
2022-08-25T04:38:43.625Z,17.84
2022-08-25T04:39:43.580Z,17.84
2022-08-25T04:40:43.630Z,17.84
2022-08-25T04:41:43.576Z,17.85
2022-08-25T04:42:43.649Z,17.95
2022-08-25T04:43:43.544Z,17.88
2022-08-25T04:44:43.525Z,18.00
2022-08-25T04:45:43.555Z,18.02
2022-08-25T04:46:43.525Z,17.95
2022-08-25T04:47:43.603Z,17.97
2022-08-25T04:48:43.492Z,18.03
2022-08-25T04:49:43.486Z,18.00
2022-08-25T04:50:43.481Z,18.04
2022-08-25T04:51:43.483Z,18.04
2022-08-25T04:52:43.459Z,18.06
2022-08-25T04:53:43.443Z,17.97
2022-08-25T04:54:43.448Z,18.04
2022-08-25T04:55:43.431Z,17.99
2022-08-25T04:56:43.427Z,18.03
2022-08-25T04:57:43.422Z,18.10
2022-08-25T04:58:43.482Z,18.09
2022-08-25T04:59:43.384Z,18.00
2022-08-25T05:00:43.413Z,18.10
2022-08-25T05:01:43.376Z,18.03
2022-08-25T05:02:43.357Z,18.15
2022-08-25T05:03:43.354Z,18.12
2022-08-25T05:04:43.424Z,17.99
2022-08-25T05:05:43.334Z,18.17
2022-08-25T05:06:43.336Z,17.95
2022-08-25T05:07:43.304Z,18.07
2022-08-25T05:08:46.030Z,18.00
2022-08-25T05:09:43.291Z,18.03
2022-08-25T05:10:43.279Z,18.04
2022-08-25T05:11:43.283Z,18.13
2022-08-25T05:12:43.254Z,18.12
2022-08-25T05:13:43.248Z,18.02
2022-08-25T05:14:43.245Z,18.19
2022-08-25T05:15:43.269Z,18.07
2022-08-25T05:16:43.301Z,18.19
2022-08-25T05:17:43.213Z,18.12
2022-08-25T05:18:43.203Z,18.19
2022-08-25T05:19:44.192Z,18.22
2022-08-25T05:20:43.173Z,18.31
2022-08-25T05:21:43.184Z,18.25
2022-08-25T05:22:43.184Z,18.13
2022-08-25T05:23:43.156Z,18.21
2022-08-25T05:24:43.143Z,18.09
2022-08-25T05:25:44.136Z,18.12
2022-08-25T05:26:43.138Z,18.04
2022-08-25T05:27:43.116Z,18.03
2022-08-25T05:28:43.097Z,17.91
2022-08-25T05:29:43.097Z,17.87
2022-08-25T05:30:43.084Z,17.91
2022-08-25T05:31:47.055Z,17.89
2022-08-25T05:32:44.062Z,17.85
2022-08-25T05:33:43.050Z,18.00
2022-08-25T05:34:43.042Z,18.02
2022-08-25T05:35:43.034Z,18.03
2022-08-25T05:36:43.037Z,18.00
2022-08-25T05:37:43.016Z,18.02
2022-08-25T05:38:43.004Z,18.06
2022-08-25T05:39:43.002Z,18.07
2022-08-25T05:40:42.990Z,18.12
2022-08-25T05:41:42.988Z,18.29
2022-08-25T05:42:42.964Z,18.40
2022-08-25T05:43:42.952Z,18.49
2022-08-25T05:44:42.942Z,18.54
2022-08-25T05:45:43.014Z,18.57
2022-08-25T05:46:42.940Z,18.70
2022-08-25T05:47:42.919Z,18.70
2022-08-25T05:48:42.893Z,18.68
2022-08-25T05:49:42.892Z,18.83
2022-08-25T05:50:42.904Z,18.86
2022-08-25T05:51:42.886Z,18.90
2022-08-25T05:52:42.878Z,18.95
2022-08-25T05:53:42.850Z,19.06
2022-08-25T05:54:43.091Z,19.06
2022-08-25T05:55:42.836Z,19.17
2022-08-25T05:56:42.826Z,19.29
2022-08-25T05:57:42.808Z,19.36
2022-08-25T05:58:42.801Z,19.28
2022-08-25T05:59:42.792Z,19.36
2022-08-25T06:00:42.842Z,19.38
2022-08-25T06:01:43.551Z,19.39
2022-08-25T06:02:42.757Z,19.47
2022-08-25T06:03:42.807Z,19.47
2022-08-25T06:04:42.738Z,19.57
2022-08-25T06:05:42.731Z,19.63
2022-08-25T06:06:42.736Z,19.63
2022-08-25T06:07:42.713Z,19.63
2022-08-25T06:08:42.701Z,19.73
2022-08-25T06:09:42.690Z,19.72
2022-08-25T06:10:42.685Z,19.79
2022-08-25T06:11:42.705Z,19.83
2022-08-25T06:12:42.663Z,19.87
2022-08-25T06:13:42.652Z,19.84
2022-08-25T06:14:42.654Z,19.83
2022-08-25T06:15:42.629Z,19.97
2022-08-25T06:16:42.662Z,20.02
2022-08-25T06:17:42.623Z,20.00
2022-08-25T06:18:42.598Z,20.12
2022-08-25T06:19:42.593Z,20.15
2022-08-25T06:20:42.583Z,20.24
2022-08-25T06:21:42.592Z,20.27
2022-08-25T06:22:42.563Z,20.31
2022-08-25T06:23:42.547Z,20.39
2022-08-25T06:24:42.551Z,20.50
2022-08-25T06:25:42.540Z,20.54
2022-08-25T06:26:42.544Z,20.51
2022-08-25T06:27:42.510Z,20.58
2022-08-25T06:28:42.504Z,20.64
2022-08-25T06:29:42.499Z,20.69
2022-08-25T06:30:42.484Z,20.76
2022-08-25T06:31:42.700Z,20.84
2022-08-25T06:32:42.466Z,20.95
2022-08-25T06:33:42.459Z,21.01
2022-08-25T06:34:42.458Z,21.05
2022-08-25T06:35:42.450Z,21.09
2022-08-25T06:36:42.441Z,21.16
2022-08-25T06:37:42.416Z,21.26
2022-08-25T06:38:42.417Z,21.16
2022-08-25T06:39:42.398Z,21.24
2022-08-25T06:40:42.387Z,21.24
2022-08-25T06:41:42.395Z,21.27
2022-08-25T06:42:42.373Z,21.41
2022-08-25T06:43:48.030Z,21.45
2022-08-25T06:44:43.343Z,21.41
2022-08-25T06:45:42.340Z,21.26
2022-08-25T06:46:42.393Z,21.36
2022-08-25T06:47:42.306Z,21.36
2022-08-25T06:48:42.304Z,21.39
2022-08-25T06:49:42.299Z,21.46
2022-08-25T06:50:42.288Z,21.48
2022-08-25T06:51:42.294Z,21.45
2022-08-25T06:52:42.268Z,21.46
2022-08-25T06:53:42.262Z,21.42
2022-08-25T06:54:42.245Z,21.48
2022-08-25T06:55:42.237Z,21.59
2022-08-25T06:56:42.245Z,21.66
2022-08-25T06:57:42.224Z,21.75
2022-08-25T06:58:42.253Z,21.85
2022-08-25T06:59:42.201Z,21.97
2022-08-25T07:00:42.232Z,22.06
2022-08-25T07:01:42.292Z,22.10
2022-08-25T07:02:42.225Z,22.27
2022-08-25T07:03:42.165Z,22.28
2022-08-25T07:04:42.153Z,22.44
2022-08-25T07:05:43.919Z,22.38
2022-08-25T07:06:43.143Z,22.28
2022-08-25T07:07:43.640Z,22.28
2022-08-25T07:08:42.136Z,22.46
2022-08-25T07:09:42.119Z,22.43
2022-08-25T07:10:42.107Z,22.57
2022-08-25T07:11:42.123Z,22.64
2022-08-25T07:12:42.085Z,22.72
2022-08-25T07:13:42.099Z,22.68
2022-08-25T07:14:46.598Z,22.69
2022-08-25T07:15:43.058Z,22.72
2022-08-25T07:16:45.994Z,22.77
2022-08-25T07:17:43.042Z,22.86
2022-08-25T07:18:42.037Z,22.96
2022-08-25T07:19:42.026Z,22.92
2022-08-25T07:20:42.025Z,22.97
2022-08-25T07:21:42.026Z,22.90
2022-08-25T07:22:41.998Z,22.94
2022-08-25T07:23:41.993Z,23.07
2022-08-25T07:24:41.980Z,23.11
2022-08-25T07:25:41.967Z,22.94
2022-08-25T07:26:41.983Z,22.89
2022-08-25T07:27:42.240Z,22.77
2022-08-25T07:28:47.339Z,22.74
2022-08-25T07:29:42.931Z,22.71
2022-08-25T07:30:41.933Z,22.71
2022-08-25T07:31:42.012Z,22.77
2022-08-25T07:32:43.242Z,22.74
2022-08-25T07:33:41.895Z,22.68
2022-08-25T07:34:41.898Z,22.78
2022-08-25T07:35:43.795Z,22.83
2022-08-25T07:36:41.885Z,23.05
2022-08-25T07:37:49.743Z,23.20
2022-08-25T07:38:43.848Z,23.35
2022-08-25T07:39:41.836Z,23.35
2022-08-25T07:40:42.696Z,23.47
2022-08-25T07:41:41.849Z,23.58
2022-08-25T07:42:41.810Z,23.53
2022-08-25T07:43:41.801Z,23.61
2022-08-25T07:44:41.789Z,23.67
2022-08-25T07:45:49.496Z,23.64
2022-08-25T07:46:42.837Z,23.61
2022-08-25T07:47:41.809Z,23.57
2022-08-25T07:48:41.747Z,23.65
2022-08-25T07:49:41.741Z,23.62
2022-08-25T07:50:41.761Z,23.68
2022-08-25T07:52:04.271Z,23.70
2022-08-25T07:52:42.741Z,23.71
2022-08-25T07:53:41.708Z,23.85
2022-08-25T07:54:41.696Z,23.97
2022-08-25T07:55:41.680Z,24.10
2022-08-25T07:56:41.691Z,24.24
2022-08-25T07:57:41.667Z,24.37
2022-08-25T07:58:41.651Z,24.52
2022-08-25T07:59:41.631Z,24.63
2022-08-25T08:00:42.191Z,24.77
2022-08-25T08:01:41.682Z,24.76
2022-08-25T08:02:41.666Z,24.88
2022-08-25T08:03:50.636Z,24.91
2022-08-25T08:04:43.584Z,24.98
2022-08-25T08:05:41.579Z,25.13
2022-08-25T08:06:41.581Z,25.30
2022-08-25T08:07:43.820Z,25.25
2022-08-25T08:08:41.633Z,25.17
2022-08-25T08:09:41.540Z,25.19
2022-08-25T08:11:02.749Z,25.27
2022-08-25T08:11:53.701Z,25.38
2022-08-25T08:12:43.508Z,25.56
2022-08-25T08:13:41.640Z,25.54
2022-08-25T08:14:45.032Z,25.65
2022-08-25T08:15:41.529Z,25.69
2022-08-25T08:16:41.487Z,25.72
2022-08-25T08:17:41.473Z,25.77
2022-08-25T08:18:41.449Z,25.77
2022-08-25T08:19:44.863Z,25.79
2022-08-25T08:20:42.947Z,25.84
2022-08-25T08:21:41.451Z,25.86
2022-08-25T08:22:41.412Z,25.94
2022-08-25T08:23:41.432Z,25.99
2022-08-25T08:24:44.864Z,26.15
2022-08-25T08:25:43.377Z,26.29
2022-08-25T08:26:58.269Z,26.37
2022-08-25T08:27:43.363Z,26.44
2022-08-25T08:28:41.351Z,26.55
2022-08-25T08:29:41.336Z,26.57
2022-08-25T08:30:53.509Z,26.50
2022-08-25T08:31:48.584Z,26.65
2022-08-25T08:33:08.217Z,26.67
2022-08-25T08:33:43.304Z,26.80
2022-08-25T08:34:41.294Z,26.80
2022-08-25T08:35:41.307Z,26.89
2022-08-25T08:36:41.288Z,26.95
2022-08-25T08:37:41.262Z,26.87
2022-08-25T08:38:41.246Z,26.81
2022-08-25T08:39:41.241Z,26.80
2022-08-25T08:40:41.236Z,26.83
2022-08-25T08:42:07.672Z,26.79
2022-08-25T08:42:46.735Z,26.89
2022-08-25T08:43:41.216Z,26.89
2022-08-25T08:44:41.188Z,27.10
2022-08-25T08:45:43.990Z,27.11
2022-08-25T08:46:41.240Z,27.28
2022-08-25T08:47:41.286Z,27.33
2022-08-25T08:48:41.156Z,27.36
2022-08-25T08:49:41.148Z,27.38
2022-08-25T08:50:41.143Z,27.28
2022-08-25T08:51:41.147Z,27.48
2022-08-25T08:52:41.119Z,27.59
2022-08-25T08:53:41.115Z,27.62
2022-08-25T08:54:41.384Z,27.61
2022-08-25T08:55:41.095Z,27.57
2022-08-25T08:56:45.458Z,27.51
2022-08-25T08:57:42.155Z,27.39
2022-08-25T08:58:41.775Z,27.33
2022-08-25T08:59:41.060Z,27.33
2022-08-25T09:00:41.039Z,27.47
2022-08-25T09:01:42.090Z,27.54
2022-08-25T09:02:50.527Z,27.57
2022-08-25T09:03:42.063Z,27.59
2022-08-25T09:04:41.005Z,27.64
2022-08-25T09:05:44.951Z,27.80
2022-08-25T09:06:42.097Z,27.73
2022-08-25T09:07:42.334Z,27.79
2022-08-25T09:08:44.692Z,27.91
2022-08-25T09:09:40.957Z,27.99
2022-08-25T09:10:40.952Z,27.99
2022-08-25T09:11:40.958Z,27.94
2022-08-25T09:12:40.989Z,27.77
2022-08-25T09:13:40.928Z,27.80
2022-08-25T09:14:40.913Z,27.84
2022-08-25T09:15:41.237Z,27.79
2022-08-25T09:16:40.989Z,27.92
2022-08-25T09:17:40.885Z,27.99
2022-08-25T09:18:40.877Z,28.09
2022-08-25T09:19:42.349Z,28.23
2022-08-25T09:20:40.880Z,28.28
2022-08-25T09:21:40.861Z,28.31
2022-08-25T09:22:40.840Z,28.29
2022-08-25T09:23:40.830Z,28.17
2022-08-25T09:24:40.823Z,28.17
2022-08-25T09:25:52.728Z,28.07
2022-08-25T09:26:41.828Z,28.11
2022-08-25T09:27:40.817Z,28.11
2022-08-25T09:28:40.786Z,28.09
2022-08-25T09:29:40.772Z,27.96
2022-08-25T09:30:40.777Z,27.77
2022-08-25T09:31:40.821Z,27.79
2022-08-25T09:32:40.750Z,27.82
2022-08-25T09:33:40.740Z,27.91
2022-08-25T09:34:40.775Z,27.98
2022-08-25T09:35:40.755Z,27.96
2022-08-25T09:36:40.723Z,27.99
2022-08-25T09:37:40.701Z,28.03
2022-08-25T09:38:40.700Z,28.10
2022-08-25T09:39:40.815Z,28.14
2022-08-25T09:40:40.677Z,28.31
2022-08-25T09:41:40.688Z,28.40
2022-08-25T09:43:12.567Z,28.40
2022-08-25T09:43:40.651Z,28.53
2022-08-25T09:44:40.633Z,28.69
2022-08-25T09:45:40.633Z,28.80
2022-08-25T09:46:40.669Z,28.70
2022-08-25T09:47:40.620Z,28.73
2022-08-25T09:48:40.971Z,28.73
2022-08-25T09:49:40.590Z,28.63
2022-08-25T09:50:45.580Z,28.51
2022-08-25T09:51:43.401Z,28.68
2022-08-25T09:52:41.387Z,28.84
2022-08-25T09:53:40.560Z,28.88
2022-08-25T09:54:44.301Z,28.97
2022-08-25T09:55:41.536Z,29.07
2022-08-25T09:56:40.556Z,29.08
2022-08-25T09:57:40.516Z,29.19
2022-08-25T09:58:40.510Z,29.22
2022-08-25T09:59:40.504Z,29.28
2022-08-25T10:00:41.492Z,29.31
2022-08-25T10:01:40.537Z,29.06
2022-08-25T10:02:40.498Z,28.77
2022-08-25T10:03:40.465Z,28.43
2022-08-25T10:04:40.555Z,28.11
2022-08-25T10:05:40.448Z,28.17
2022-08-25T10:06:40.436Z,27.99
2022-08-25T10:07:40.453Z,28.01
2022-08-25T10:08:40.416Z,28.07
2022-08-25T10:09:40.411Z,28.10
2022-08-25T10:10:41.956Z,28.13
2022-08-25T10:11:40.387Z,28.11
2022-08-25T10:12:42.930Z,28.25
2022-08-25T10:13:40.371Z,28.28
2022-08-25T10:14:44.669Z,28.38
2022-08-25T10:15:40.380Z,28.31
2022-08-25T10:16:40.372Z,28.21
2022-08-25T10:17:40.350Z,28.07
2022-08-25T10:18:40.320Z,28.10
2022-08-25T10:19:40.324Z,28.01
2022-08-25T10:20:42.221Z,28.01
2022-08-25T10:21:40.297Z,27.85
2022-08-25T10:22:40.302Z,27.80
2022-08-25T10:23:40.277Z,27.84
2022-08-25T10:24:41.040Z,27.69
2022-08-25T10:25:40.276Z,27.54
2022-08-25T10:26:40.246Z,27.57
2022-08-25T10:27:40.253Z,27.50
2022-08-25T10:28:40.221Z,27.64
2022-08-25T10:29:40.858Z,27.80
2022-08-25T10:30:40.279Z,28.03
2022-08-25T10:31:41.328Z,28.19
2022-08-25T10:32:40.218Z,28.43
2022-08-25T10:33:40.187Z,28.58
2022-08-25T10:34:40.173Z,28.65
2022-08-25T10:35:40.167Z,28.53
2022-08-25T10:36:40.148Z,28.58
2022-08-25T10:37:40.175Z,28.56
2022-08-25T10:38:43.133Z,28.58
2022-08-25T10:39:40.697Z,28.58
2022-08-25T10:40:40.222Z,28.82
2022-08-25T10:41:40.106Z,28.93
2022-08-25T10:42:40.118Z,29.16
2022-08-25T10:43:40.099Z,29.29
2022-08-25T10:44:40.083Z,29.22
2022-08-25T10:45:40.075Z,29.25
2022-08-25T10:46:40.162Z,29.23
2022-08-25T10:47:40.067Z,29.38
2022-08-25T10:48:40.031Z,29.50
2022-08-25T10:49:40.028Z,29.49
2022-08-25T10:50:40.026Z,29.56
2022-08-25T10:51:41.019Z,29.55
2022-08-25T10:52:40.022Z,29.49
2022-08-25T10:53:39.987Z,29.49
2022-08-25T10:54:39.973Z,29.47
2022-08-25T10:55:40.461Z,29.45
2022-08-25T10:56:40.783Z,29.57
2022-08-25T10:57:39.977Z,29.75
2022-08-25T10:58:39.947Z,29.94
2022-08-25T10:59:39.935Z,30.00
2022-08-25T11:00:40.368Z,30.18
2022-08-25T11:01:43.938Z,30.45
2022-08-25T11:02:41.413Z,30.46
2022-08-25T11:03:39.896Z,30.45
2022-08-25T11:04:39.938Z,30.52
2022-08-25T11:05:39.971Z,30.56
2022-08-25T11:06:39.877Z,30.61
2022-08-25T11:07:39.878Z,30.33
2022-08-25T11:08:39.839Z,30.37
2022-08-25T11:09:40.212Z,30.37
2022-08-25T11:10:39.837Z,30.47
2022-08-25T11:11:39.819Z,30.54
2022-08-25T11:12:39.845Z,30.59
2022-08-25T11:13:39.802Z,30.45
2022-08-25T11:14:39.794Z,30.29
2022-08-25T11:15:46.757Z,30.30
2022-08-25T11:16:41.845Z,30.37
2022-08-25T11:17:39.778Z,30.34
2022-08-25T11:18:39.757Z,30.40
2022-08-25T11:19:39.746Z,30.61
2022-08-25T11:20:39.732Z,30.56
2022-08-25T11:21:39.730Z,30.65
2022-08-25T11:22:39.752Z,30.76
2022-08-25T11:23:39.704Z,30.91
2022-08-25T11:24:39.702Z,30.75
2022-08-25T11:25:39.681Z,30.57
2022-08-25T11:26:40.670Z,30.38
2022-08-25T11:27:39.695Z,29.90
2022-08-25T11:28:39.646Z,29.60
2022-08-25T11:29:39.645Z,29.28
2022-08-25T11:30:39.712Z,29.01
2022-08-25T11:31:39.627Z,28.95
2022-08-25T11:32:39.627Z,29.20
2022-08-25T11:33:39.607Z,29.44
2022-08-25T11:34:43.655Z,29.44
2022-08-25T11:35:39.598Z,29.59
2022-08-25T11:36:39.583Z,29.63
2022-08-25T11:37:39.591Z,29.66
2022-08-25T11:38:39.578Z,29.62
2022-08-25T11:39:40.225Z,29.68
2022-08-25T11:40:39.545Z,29.53
2022-08-25T11:41:39.543Z,29.35
2022-08-25T11:42:39.544Z,29.22
2022-08-25T11:43:40.530Z,29.10
2022-08-25T11:44:39.510Z,29.22
2022-08-25T11:45:40.571Z,29.33
2022-08-25T11:46:39.491Z,29.37
2022-08-25T11:47:39.493Z,29.65
2022-08-25T11:48:39.465Z,29.65
2022-08-25T11:49:39.462Z,29.52
2022-08-25T11:50:39.447Z,29.45
2022-08-25T11:51:39.465Z,29.41
2022-08-25T11:52:39.441Z,29.60
2022-08-25T11:53:42.143Z,29.68
2022-08-25T11:54:39.409Z,29.74
2022-08-25T11:55:39.399Z,29.82
2022-08-25T11:56:40.065Z,29.90
2022-08-25T11:57:39.444Z,29.93
2022-08-25T11:58:40.602Z,30.11
2022-08-25T11:59:39.363Z,30.16
2022-08-25T12:00:39.351Z,30.40
2022-08-25T12:01:39.348Z,30.46
2022-08-25T12:02:39.376Z,30.59
2022-08-25T12:03:39.324Z,30.71
2022-08-25T12:04:44.250Z,30.72
2022-08-25T12:05:39.339Z,30.75
2022-08-25T12:06:39.295Z,30.80
2022-08-25T12:07:39.301Z,30.90
2022-08-25T12:08:39.275Z,30.96
2022-08-25T12:09:39.264Z,31.08
2022-08-25T12:10:39.263Z,31.27
2022-08-25T12:11:39.255Z,31.28
2022-08-25T12:12:39.253Z,31.24
2022-08-25T12:13:39.225Z,30.86
2022-08-25T12:14:39.227Z,30.67
2022-08-25T12:15:39.214Z,30.53
2022-08-25T12:16:39.278Z,30.50
2022-08-25T12:17:39.455Z,30.47
2022-08-25T12:18:39.182Z,30.49
2022-08-25T12:19:40.180Z,30.54
2022-08-25T12:20:39.162Z,30.61
2022-08-25T12:21:39.161Z,30.71
2022-08-25T12:22:39.175Z,30.71
2022-08-25T12:23:45.022Z,30.89
2022-08-25T12:24:40.137Z,30.86
2022-08-25T12:25:39.116Z,30.74
2022-08-25T12:26:39.110Z,30.54
2022-08-25T12:27:39.126Z,30.27
2022-08-25T12:28:39.176Z,30.02
2022-08-25T12:29:39.092Z,29.86
2022-08-25T12:30:39.122Z,29.75
2022-08-25T12:31:39.087Z,29.75
2022-08-25T12:32:39.144Z,29.63
2022-08-25T12:33:39.047Z,29.60
2022-08-25T12:34:39.055Z,29.52
2022-08-25T12:35:39.027Z,29.43
2022-08-25T12:36:39.006Z,29.37
2022-08-25T12:37:39.027Z,29.35
2022-08-25T12:38:43.182Z,29.40
2022-08-25T12:39:40.990Z,29.41
2022-08-25T12:40:38.981Z,29.59
2022-08-25T12:41:38.972Z,29.96
2022-08-25T12:42:39.000Z,30.15
2022-08-25T12:43:38.944Z,30.27
2022-08-25T12:44:38.939Z,30.29
2022-08-25T12:45:38.984Z,30.49
2022-08-25T12:46:38.926Z,30.64
2022-08-25T12:47:40.850Z,30.69
2022-08-25T12:48:40.911Z,30.80
2022-08-25T12:49:38.907Z,30.91
2022-08-25T12:50:38.879Z,31.09
2022-08-25T12:51:38.870Z,31.35
2022-08-25T12:52:38.993Z,31.23
2022-08-25T12:53:38.860Z,31.35
2022-08-25T12:54:38.847Z,31.42